createdAt,value
2022-12-24T00:01:40.361Z,9.50
2022-12-24T00:04:08.842Z,9.50
2022-12-24T00:06:37.329Z,9.60
2022-12-24T00:09:05.847Z,9.60
2022-12-24T00:11:35.662Z,9.60
2022-12-24T00:14:04.179Z,9.60
2022-12-24T00:16:32.724Z,9.70
2022-12-24T00:19:01.570Z,9.60
2022-12-24T00:21:29.990Z,9.60
2022-12-24T00:23:58.262Z,9.60
2022-12-24T00:26:26.809Z,9.60
2022-12-24T00:28:56.734Z,9.70
2022-12-24T00:31:25.801Z,9.70
2022-12-24T00:33:54.515Z,9.70
2022-12-24T00:36:24.589Z,9.80
2022-12-24T00:38:53.132Z,9.80
2022-12-24T00:41:29.402Z,9.80
2022-12-24T00:44:01.185Z,9.80
2022-12-24T00:46:31.668Z,9.70
2022-12-24T00:49:00.168Z,9.70
2022-12-24T00:51:28.689Z,9.70
2022-12-24T00:53:57.288Z,9.60
2022-12-24T00:56:26.421Z,9.60
2022-12-24T00:58:55.909Z,9.60
2022-12-24T01:01:27.197Z,9.60
2022-12-24T01:04:17.407Z,9.50
2022-12-24T01:06:45.186Z,9.50
2022-12-24T01:09:13.657Z,9.50
2022-12-24T01:11:42.236Z,9.50
2022-12-24T01:14:10.658Z,9.50
2022-12-24T01:16:40.600Z,9.50
2022-12-24T01:19:09.260Z,9.50
2022-12-24T01:21:37.651Z,9.40
2022-12-24T01:24:06.343Z,9.50
2022-12-24T01:26:34.849Z,9.50
2022-12-24T01:29:03.233Z,9.50
2022-12-24T01:31:31.680Z,9.50
2022-12-24T01:34:01.717Z,9.50
2022-12-24T01:36:30.194Z,9.50
2022-12-24T01:38:58.599Z,9.50
2022-12-24T01:41:44.638Z,9.40
2022-12-24T01:44:22.073Z,9.50
2022-12-24T01:46:53.141Z,9.50
2022-12-24T01:49:23.442Z,9.50
2022-12-24T01:51:55.802Z,9.50
2022-12-24T01:54:27.374Z,9.50
2022-12-24T01:56:59.951Z,9.50
2022-12-24T01:59:28.794Z,9.50
2022-12-24T02:01:57.498Z,9.50
2022-12-24T02:04:35.454Z,9.60
2022-12-24T02:07:04.212Z,9.60
2022-12-24T02:09:34.051Z,9.60
2022-12-24T02:12:03.288Z,9.50
2022-12-24T02:14:33.117Z,9.50
2022-12-24T02:17:08.526Z,9.60
2022-12-24T02:20:09.001Z,9.60
2022-12-24T02:22:51.245Z,9.60
2022-12-24T02:25:45.269Z,9.50
2022-12-24T02:28:23.701Z,9.50
2022-12-24T02:30:58.322Z,9.60
2022-12-24T02:33:30.960Z,9.60
2022-12-24T02:36:05.589Z,9.60
2022-12-24T02:38:38.636Z,9.60
2022-12-24T02:41:10.596Z,9.50
2022-12-24T02:43:43.389Z,9.60
2022-12-24T02:46:16.411Z,9.60
2022-12-24T02:48:48.694Z,9.50
2022-12-24T02:51:17.834Z,9.50
2022-12-24T02:53:46.146Z,9.50
2022-12-24T02:56:48.203Z,9.50
2022-12-24T02:59:46.427Z,9.50
2022-12-24T03:02:24.178Z,9.60
2022-12-24T03:05:01.136Z,9.60
2022-12-24T03:07:36.133Z,9.60
2022-12-24T03:10:22.243Z,9.60
2022-12-24T03:12:54.291Z,9.50
2022-12-24T03:15:27.055Z,9.50
2022-12-24T03:18:01.099Z,9.40
2022-12-24T03:20:34.807Z,9.40
2022-12-24T03:23:04.405Z,9.30
2022-12-24T03:25:34.497Z,9.30
2022-12-24T03:28:07.266Z,9.30
2022-12-24T03:30:35.813Z,9.40
2022-12-24T03:33:05.799Z,9.40
2022-12-24T03:35:34.245Z,9.40
2022-12-24T03:38:02.613Z,9.40
2022-12-24T03:40:31.003Z,9.40
2022-12-24T03:42:59.392Z,9.50
2022-12-24T03:45:28.455Z,9.50
2022-12-24T03:47:56.941Z,9.50
2022-12-24T03:50:26.825Z,9.60
2022-12-24T03:52:56.156Z,9.60
2022-12-24T03:55:24.842Z,9.60
2022-12-24T03:57:53.329Z,9.70
2022-12-24T04:00:22.449Z,9.70
2022-12-24T04:02:51.017Z,9.60
2022-12-24T04:05:21.619Z,9.70
2022-12-24T04:07:51.433Z,9.70
2022-12-24T04:10:20.063Z,9.70
2022-12-24T04:12:48.465Z,9.70
2022-12-24T04:15:17.775Z,9.60
2022-12-24T04:17:46.142Z,9.60
2022-12-24T04:20:14.739Z,9.60
2022-12-24T04:22:43.261Z,9.60
2022-12-24T04:25:13.169Z,9.60
2022-12-24T04:27:41.563Z,9.60
2022-12-24T04:30:11.897Z,9.60
2022-12-24T04:32:40.258Z,9.60
2022-12-24T04:35:09.434Z,9.60
2022-12-24T04:37:37.948Z,9.60
2022-12-24T04:40:07.612Z,9.50
2022-12-24T04:42:37.455Z,9.50
2022-12-24T04:45:06.585Z,9.50
2022-12-24T04:47:35.044Z,9.50
2022-12-24T04:50:03.459Z,9.50
2022-12-24T04:52:31.893Z,9.50
2022-12-24T04:55:00.584Z,9.50
2022-12-24T04:57:28.945Z,9.50
2022-12-24T04:59:58.677Z,9.50
2022-12-24T05:02:27.316Z,9.40
2022-12-24T05:04:55.801Z,9.40
2022-12-24T05:07:42.489Z,9.40
2022-12-24T05:10:12.026Z,9.40
2022-12-24T05:12:40.406Z,9.40
2022-12-24T05:15:10.828Z,9.50
2022-12-24T05:17:39.162Z,9.50
2022-12-24T05:20:08.859Z,9.50
2022-12-24T05:22:54.731Z,9.40
2022-12-24T05:25:54.888Z,9.40
2022-12-24T05:28:23.428Z,9.50
2022-12-24T05:30:53.283Z,9.50
2022-12-24T05:33:21.762Z,9.50
2022-12-24T05:35:52.209Z,9.60
2022-12-24T05:38:20.698Z,9.60
2022-12-24T05:40:49.058Z,9.60
2022-12-24T05:43:17.444Z,9.60
2022-12-24T05:45:45.936Z,9.50
2022-12-24T05:48:15.761Z,9.60
2022-12-24T05:50:44.332Z,9.60
2022-12-24T05:53:12.779Z,9.60
2022-12-24T05:55:41.363Z,9.60
2022-12-24T05:58:09.753Z,9.60
2022-12-24T06:00:38.260Z,9.60
2022-12-24T06:03:06.718Z,9.60
2022-12-24T06:05:37.288Z,9.60
2022-12-24T06:08:06.239Z,9.60
2022-12-24T06:10:34.651Z,9.50
2022-12-24T06:13:02.977Z,9.50
2022-12-24T06:15:31.533Z,9.60
2022-12-24T06:18:00.169Z,9.50
2022-12-24T06:20:28.566Z,9.60
2022-12-24T06:22:58.299Z,9.60
2022-12-24T06:25:26.669Z,9.50
2022-12-24T06:27:55.439Z,9.50
2022-12-24T06:30:24.720Z,9.50
2022-12-24T06:32:53.090Z,9.50
2022-12-24T06:35:21.371Z,9.50
2022-12-24T06:37:49.862Z,9.50
2022-12-24T06:40:19.753Z,9.50
2022-12-24T06:42:48.251Z,9.40
2022-12-24T06:45:17.737Z,9.40
2022-12-24T06:47:46.097Z,9.40
2022-12-24T06:50:14.473Z,9.40
2022-12-24T06:52:42.848Z,9.40
2022-12-24T06:55:11.786Z,9.40
2022-12-24T06:57:41.544Z,9.40
2022-12-24T07:00:12.574Z,9.40
2022-12-24T07:02:41.949Z,9.40
2022-12-24T07:05:10.802Z,9.40
2022-12-24T07:07:39.726Z,9.50
2022-12-24T07:10:09.717Z,9.50
2022-12-24T07:12:38.981Z,9.50
2022-12-24T07:15:10.170Z,9.50
2022-12-24T07:17:39.019Z,9.50
2022-12-24T07:20:09.937Z,9.50
2022-12-24T07:22:38.245Z,9.50
2022-12-24T07:25:07.606Z,9.50
2022-12-24T07:27:36.114Z,9.50
2022-12-24T07:30:04.910Z,9.50
2022-12-24T07:32:34.849Z,9.50
2022-12-24T07:35:03.414Z,9.60
2022-12-24T07:37:31.901Z,9.60
2022-12-24T07:40:00.330Z,9.60
2022-12-24T07:42:28.930Z,9.60
2022-12-24T07:44:57.374Z,9.60
2022-12-24T07:47:25.764Z,9.70
2022-12-24T07:49:55.511Z,9.80
2022-12-24T07:52:23.902Z,9.80
2022-12-24T07:54:52.306Z,9.80
2022-12-24T07:57:20.693Z,9.90
2022-12-24T07:59:49.261Z,9.90
2022-12-24T08:02:18.625Z,9.90
2022-12-24T08:04:47.411Z,9.90
2022-12-24T08:07:17.264Z,10.00
2022-12-24T08:09:46.257Z,10.00
2022-12-24T08:12:14.658Z,9.90
2022-12-24T08:14:42.982Z,9.80
2022-12-24T08:17:11.546Z,9.80
2022-12-24T08:19:39.822Z,9.90
2022-12-24T08:22:08.214Z,9.90
2022-12-24T08:24:38.598Z,10.00
2022-12-24T08:27:07.031Z,10.00
2022-12-24T08:29:35.622Z,10.00
2022-12-24T08:32:04.059Z,10.10
2022-12-24T08:34:32.545Z,10.20
2022-12-24T08:37:01.030Z,10.20
2022-12-24T08:39:29.516Z,10.20
2022-12-24T08:41:59.455Z,10.20
2022-12-24T08:44:27.875Z,10.30
2022-12-24T08:46:56.426Z,10.30
2022-12-24T08:49:24.988Z,10.40
2022-12-24T08:51:53.699Z,10.40
2022-12-24T08:54:22.632Z,10.50
2022-12-24T08:56:51.067Z,10.50
2022-12-24T08:59:21.185Z,10.60
2022-12-24T09:01:49.698Z,10.50
2022-12-24T09:04:18.256Z,10.60
2022-12-24T09:06:46.754Z,10.60
2022-12-24T09:09:15.288Z,10.60
2022-12-24T09:11:43.937Z,10.50
2022-12-24T09:14:12.527Z,10.50
2022-12-24T09:16:42.746Z,10.50
2022-12-24T09:19:11.154Z,10.50
2022-12-24T09:21:39.759Z,10.40
2022-12-24T09:24:08.948Z,10.50
2022-12-24T09:26:37.629Z,10.40
2022-12-24T09:29:06.298Z,10.50
2022-12-24T09:31:35.297Z,10.50
2022-12-24T09:34:05.198Z,10.50
2022-12-24T09:36:34.337Z,10.50
2022-12-24T09:39:02.853Z,10.50
2022-12-24T09:41:42.157Z,10.40
2022-12-24T09:44:21.729Z,10.40
2022-12-24T09:46:53.907Z,10.30
2022-12-24T09:49:26.965Z,10.20
2022-12-24T09:52:02.303Z,10.10
2022-12-24T09:54:33.583Z,10.10
2022-12-24T09:57:06.597Z,10.10
2022-12-24T09:59:43.024Z,10.20
2022-12-24T10:02:14.634Z,10.30
2022-12-24T10:04:46.041Z,10.20
2022-12-24T10:07:32.701Z,10.20
2022-12-24T10:10:13.460Z,10.20
2022-12-24T10:12:52.352Z,10.30
2022-12-24T10:15:29.143Z,10.30
2022-12-24T10:18:10.357Z,10.40
2022-12-24T10:20:47.280Z,10.30
2022-12-24T10:23:23.371Z,10.40
2022-12-24T10:25:59.399Z,10.30
2022-12-24T10:28:32.876Z,10.30
2022-12-24T10:31:06.864Z,10.20
2022-12-24T10:33:42.468Z,10.20
2022-12-24T10:36:19.562Z,10.20
2022-12-24T10:38:48.445Z,10.20
2022-12-24T10:41:17.588Z,10.20
2022-12-24T10:43:47.963Z,10.30
2022-12-24T10:46:20.749Z,10.30
2022-12-24T10:48:55.516Z,10.30
2022-12-24T10:51:32.935Z,10.40
2022-12-24T10:54:08.536Z,10.40
2022-12-24T10:56:42.897Z,10.50
2022-12-24T10:59:26.394Z,10.50
2022-12-24T11:01:56.135Z,10.50
2022-12-24T11:04:26.225Z,10.50
2022-12-24T11:06:58.680Z,10.60
2022-12-24T11:09:29.638Z,10.60
2022-12-24T11:12:02.555Z,10.60
2022-12-24T11:14:38.471Z,10.60
2022-12-24T11:17:07.095Z,10.70
2022-12-24T11:19:39.518Z,10.70
2022-12-24T11:22:18.839Z,10.70
2022-12-24T11:24:50.363Z,10.60
2022-12-24T11:27:44.503Z,10.60
2022-12-24T11:30:33.839Z,10.50
2022-12-24T11:33:20.451Z,10.50
2022-12-24T11:35:53.102Z,10.60
2022-12-24T11:38:26.143Z,10.60
2022-12-24T11:41:18.705Z,10.60
2022-12-24T11:43:49.540Z,10.70
2022-12-24T11:46:35.825Z,10.60
2022-12-24T11:49:16.575Z,10.60
2022-12-24T11:52:17.875Z,10.60
2022-12-24T11:55:01.408Z,10.60
2022-12-24T11:57:38.878Z,10.70
2022-12-24T12:00:11.063Z,10.70
2022-12-24T12:02:42.492Z,10.70
2022-12-24T12:05:14.477Z,10.60
2022-12-24T12:07:44.573Z,10.60
2022-12-24T12:10:19.238Z,10.50
2022-12-24T12:12:54.231Z,10.60
2022-12-24T12:15:26.697Z,10.70
2022-12-24T12:18:01.221Z,10.70
2022-12-24T12:20:33.994Z,10.70
2022-12-24T12:23:11.205Z,10.70
2022-12-24T12:25:46.556Z,10.70
2022-12-24T12:28:21.669Z,10.60
2022-12-24T12:31:01.893Z,10.60
2022-12-24T12:33:35.595Z,10.60
2022-12-24T12:36:05.853Z,10.60
2022-12-24T12:38:34.655Z,10.60
2022-12-24T12:41:13.861Z,10.60
2022-12-24T12:44:18.626Z,10.60
2022-12-24T12:47:01.196Z,10.60
2022-12-24T12:49:44.837Z,10.60
2022-12-24T12:52:23.137Z,10.60
2022-12-24T12:55:03.982Z,10.60
2022-12-24T12:57:38.077Z,10.60
2022-12-24T13:00:09.967Z,10.50
2022-12-24T13:03:24.243Z,10.60
2022-12-24T13:06:21.987Z,10.60
2022-12-24T13:09:26.386Z,10.60
2022-12-24T13:12:11.929Z,10.50
2022-12-24T13:14:59.217Z,10.50
2022-12-24T13:18:03.728Z,10.60
2022-12-24T13:20:33.983Z,10.60
2022-12-24T13:23:05.299Z,10.60
2022-12-24T13:25:38.681Z,10.70
2022-12-24T13:28:32.763Z,10.60
2022-12-24T13:31:30.889Z,10.60
2022-12-24T13:34:04.091Z,10.60
2022-12-24T13:37:05.070Z,10.60
2022-12-24T13:40:19.001Z,10.60
2022-12-24T13:42:53.083Z,10.50
2022-12-24T13:45:45.441Z,10.50
2022-12-24T13:48:30.197Z,10.40
2022-12-24T13:51:01.880Z,10.40
2022-12-24T13:53:33.752Z,10.40
2022-12-24T13:56:08.526Z,10.40
2022-12-24T13:58:39.932Z,10.40
2022-12-24T14:01:12.218Z,10.40
2022-12-24T14:03:48.306Z,10.30
2022-12-24T14:06:24.367Z,10.20
2022-12-24T14:08:57.032Z,10.10
2022-12-24T14:11:31.500Z,10.10
2022-12-24T14:14:26.979Z,10.10
2022-12-24T14:16:58.400Z,10.20
2022-12-24T14:19:37.238Z,10.20
2022-12-24T14:22:21.589Z,10.20
2022-12-24T14:24:54.975Z,10.20
2022-12-24T14:27:39.585Z,10.20
2022-12-24T14:30:16.123Z,10.20
2022-12-24T14:32:45.209Z,10.10
2022-12-24T14:35:19.547Z,10.10
2022-12-24T14:37:50.263Z,10.10
2022-12-24T14:40:21.557Z,10.20
2022-12-24T14:42:59.299Z,10.20
2022-12-24T14:45:34.850Z,10.20
2022-12-24T14:48:11.627Z,10.20
2022-12-24T14:51:08.079Z,10.20
2022-12-24T14:53:56.867Z,10.20
2022-12-24T14:56:25.646Z,10.20
2022-12-24T14:58:54.179Z,10.20
2022-12-24T15:01:25.040Z,10.30
2022-12-24T15:04:05.916Z,10.30
2022-12-24T15:06:38.293Z,10.30
2022-12-24T15:09:07.375Z,10.30
2022-12-24T15:11:36.804Z,10.40
2022-12-24T15:14:06.874Z,10.40
2022-12-24T15:16:37.602Z,10.40
2022-12-24T15:19:10.670Z,10.40
2022-12-24T15:21:44.207Z,10.40
2022-12-24T15:24:26.122Z,10.40
2022-12-24T15:26:54.993Z,10.40
2022-12-24T15:29:25.568Z,10.40
2022-12-24T15:31:55.579Z,10.40
2022-12-24T15:34:29.167Z,10.40
2022-12-24T15:37:08.167Z,10.30
2022-12-24T15:39:36.859Z,10.30
2022-12-24T15:42:14.738Z,10.30
2022-12-24T15:44:48.815Z,10.40
2022-12-24T15:47:21.842Z,10.40
2022-12-24T15:49:53.383Z,10.40
2022-12-24T15:52:25.773Z,10.30
2022-12-24T15:54:58.143Z,10.30
2022-12-24T15:57:32.640Z,10.30
2022-12-24T16:00:02.483Z,10.30
2022-12-24T16:02:37.391Z,10.30
2022-12-24T16:05:36.985Z,10.40
2022-12-24T16:08:27.522Z,10.40
2022-12-24T16:11:12.720Z,10.30
2022-12-24T16:13:44.349Z,10.30
2022-12-24T16:16:16.036Z,10.30
2022-12-24T16:18:53.057Z,10.30
2022-12-24T16:21:24.955Z,10.30
2022-12-24T16:23:57.548Z,10.40
2022-12-24T16:26:26.032Z,10.40
2022-12-24T16:28:56.098Z,10.40
2022-12-24T16:31:32.455Z,10.40
2022-12-24T16:34:04.298Z,10.30
2022-12-24T16:36:34.013Z,10.30
2022-12-24T16:39:21.421Z,10.30
2022-12-24T16:42:07.355Z,10.30
2022-12-24T16:44:35.929Z,10.30
2022-12-24T16:47:06.223Z,10.30
2022-12-24T16:49:38.622Z,10.40
2022-12-24T16:52:07.760Z,10.40
2022-12-24T16:54:37.414Z,10.40
2022-12-24T16:57:07.512Z,10.40
2022-12-24T16:59:35.912Z,10.30
2022-12-24T17:02:06.797Z,10.30
2022-12-24T17:04:40.447Z,10.30
2022-12-24T17:07:09.516Z,10.30
2022-12-24T17:09:39.312Z,10.30
2022-12-24T17:12:08.126Z,10.40
2022-12-24T17:14:36.931Z,10.40
2022-12-24T17:17:05.682Z,10.40
2022-12-24T17:19:34.093Z,10.50
2022-12-24T17:22:02.425Z,10.40
2022-12-24T17:24:30.853Z,10.40
2022-12-24T17:27:00.676Z,10.40
2022-12-24T17:29:29.160Z,10.40
2022-12-24T17:31:57.541Z,10.40
2022-12-24T17:34:25.900Z,10.40
2022-12-24T17:36:54.370Z,10.40
2022-12-24T17:39:27.626Z,10.40
2022-12-24T17:41:57.198Z,10.40
2022-12-24T17:44:26.947Z,10.50
2022-12-24T17:46:55.576Z,10.50
2022-12-24T17:49:24.303Z,10.50
2022-12-24T17:51:52.692Z,10.40
2022-12-24T17:54:21.192Z,10.40
2022-12-24T17:56:49.614Z,10.40
2022-12-24T17:59:18.084Z,10.40
2022-12-24T18:01:48.147Z,10.40
2022-12-24T18:04:16.726Z,10.40
2022-12-24T18:06:49.298Z,10.40
2022-12-24T18:09:18.345Z,10.30
2022-12-24T18:11:46.829Z,10.30
2022-12-24T18:14:15.453Z,10.30
2022-12-24T18:16:44.951Z,10.20
2022-12-24T18:19:14.965Z,10.20
2022-12-24T18:21:43.346Z,10.10
2022-12-24T18:24:13.355Z,10.00
2022-12-24T18:26:42.053Z,10.00
2022-12-24T18:29:10.741Z,10.00
2022-12-24T18:31:39.294Z,10.00
2022-12-24T18:34:10.822Z,10.00
2022-12-24T18:36:40.564Z,10.00
2022-12-24T18:39:09.020Z,9.90
2022-12-24T18:41:55.933Z,10.00
2022-12-24T18:44:25.520Z,10.00
2022-12-24T18:46:54.503Z,10.00
2022-12-24T18:49:23.012Z,10.10
2022-12-24T18:51:52.761Z,10.10
2022-12-24T18:54:21.143Z,10.10
2022-12-24T18:56:51.989Z,10.10
2022-12-24T18:59:20.507Z,10.00
2022-12-24T19:01:49.181Z,10.00
2022-12-24T19:04:17.917Z,10.00
2022-12-24T19:06:52.711Z,10.10
2022-12-24T19:09:23.607Z,10.00
2022-12-24T19:11:52.139Z,10.10
2022-12-24T19:14:21.089Z,10.10
2022-12-24T19:16:49.627Z,10.20
2022-12-24T19:19:18.828Z,10.20
2022-12-24T19:21:47.415Z,10.20
2022-12-24T19:24:15.811Z,10.20
2022-12-24T19:26:45.538Z,10.20
2022-12-24T19:29:13.933Z,10.20
2022-12-24T19:31:44.393Z,10.20
2022-12-24T19:34:13.012Z,10.20
2022-12-24T19:36:41.623Z,10.20
2022-12-24T19:39:09.962Z,10.10
2022-12-24T19:41:38.721Z,10.10
2022-12-24T19:44:08.647Z,10.00
2022-12-24T19:46:38.111Z,10.10
2022-12-24T19:49:08.567Z,10.10
2022-12-24T19:51:37.642Z,10.10
2022-12-24T19:54:13.309Z,10.10
2022-12-24T19:56:45.325Z,10.20
2022-12-24T19:59:15.136Z,10.20
2022-12-24T20:01:44.307Z,10.10
2022-12-24T20:04:14.122Z,10.10
2022-12-24T20:06:42.577Z,10.10
2022-12-24T20:09:12.761Z,10.10
2022-12-24T20:11:41.307Z,10.20
2022-12-24T20:14:09.778Z,10.20
2022-12-24T20:16:39.986Z,10.20
2022-12-24T20:19:09.199Z,10.20
2022-12-24T20:21:38.057Z,10.20
2022-12-24T20:24:07.703Z,10.30
2022-12-24T20:26:36.850Z,10.20
2022-12-24T20:29:06.358Z,10.20
2022-12-24T20:31:35.200Z,10.20
2022-12-24T20:34:07.453Z,10.20
2022-12-24T20:36:37.225Z,10.20
2022-12-24T20:39:06.401Z,10.10
2022-12-24T20:41:35.382Z,10.10
2022-12-24T20:44:04.757Z,10.00
2022-12-24T20:46:33.804Z,10.00
2022-12-24T20:49:02.443Z,9.90
2022-12-24T20:51:32.462Z,9.90
2022-12-24T20:54:02.015Z,10.00
2022-12-24T20:56:32.470Z,10.00
2022-12-24T20:59:02.052Z,10.10
2022-12-24T21:01:31.466Z,10.10
2022-12-24T21:04:04.548Z,10.00
2022-12-24T21:06:36.419Z,10.00
2022-12-24T21:09:05.877Z,10.00
2022-12-24T21:11:51.498Z,10.00
2022-12-24T21:14:22.166Z,9.90
2022-12-24T21:16:51.795Z,10.00
2022-12-24T21:19:22.805Z,10.00
2022-12-24T21:21:52.848Z,10.10
2022-12-24T21:24:21.343Z,10.10
2022-12-24T21:26:49.769Z,10.10
2022-12-24T21:29:18.404Z,10.10
2022-12-24T21:31:48.207Z,10.10
2022-12-24T21:34:16.739Z,10.10
2022-12-24T21:36:46.142Z,10.10
2022-12-24T21:39:16.039Z,10.10
2022-12-24T21:41:44.871Z,10.10
2022-12-24T21:44:13.195Z,10.20
2022-12-24T21:46:42.118Z,10.20
2022-12-24T21:49:29.132Z,10.20
2022-12-24T21:51:59.192Z,10.20
2022-12-24T21:54:28.759Z,10.20
2022-12-24T21:57:16.441Z,10.20
2022-12-24T21:59:45.067Z,10.10
2022-12-24T22:02:15.324Z,10.10
2022-12-24T22:04:44.701Z,10.10
2022-12-24T22:07:39.301Z,10.10
2022-12-24T22:10:28.474Z,10.10
2022-12-24T22:12:59.613Z,10.20
2022-12-24T22:15:29.069Z,10.10
2022-12-24T22:17:57.612Z,10.20
2022-12-24T22:20:26.410Z,10.10
2022-12-24T22:22:54.846Z,10.20
2022-12-24T22:25:25.043Z,10.20
2022-12-24T22:27:53.544Z,10.20
2022-12-24T22:30:22.259Z,10.20
2022-12-24T22:32:50.998Z,10.20
2022-12-24T22:35:19.755Z,10.20
2022-12-24T22:37:48.213Z,10.20
2022-12-24T22:40:16.856Z,10.10
2022-12-24T22:42:46.636Z,10.20
2022-12-24T22:45:21.882Z,10.10
2022-12-24T22:47:51.114Z,10.20
2022-12-24T22:50:19.870Z,10.20
2022-12-24T22:52:48.681Z,10.20
2022-12-24T22:55:17.201Z,10.10
2022-12-24T22:57:47.163Z,10.10
2022-12-24T23:00:37.058Z,10.10
2022-12-24T23:03:06.262Z,10.10
2022-12-24T23:05:35.174Z,10.10
2022-12-24T23:08:04.027Z,10.10
2022-12-24T23:10:32.612Z,10.10
2022-12-24T23:13:19.973Z,10.10
2022-12-24T23:15:48.510Z,10.00
2022-12-24T23:18:17.238Z,10.00
2022-12-24T23:20:46.463Z,10.10
2022-12-24T23:23:16.057Z,10.10
2022-12-24T23:25:44.546Z,10.10
2022-12-24T23:28:14.627Z,10.10
2022-12-24T23:30:43.054Z,10.10
2022-12-24T23:33:11.523Z,10.10
2022-12-24T23:35:40.696Z,10.10
2022-12-24T23:38:09.247Z,10.10
2022-12-24T23:40:37.776Z,10.10
2022-12-24T23:43:06.238Z,10.10
2022-12-24T23:45:36.244Z,10.10
2022-12-24T23:48:04.897Z,10.10
2022-12-24T23:50:33.219Z,10.10
2022-12-24T23:53:01.618Z,10.20
2022-12-24T23:55:30.019Z,10.20
2022-12-24T23:57:58.556Z,10.10
